sensor_id;sensor_type;location;lat;lon;timestamp;P1;durP1;ratioP1;P2;durP2;ratioP2
17842;SDS011;69286;48.222;16.332;2023-06-22T00:00:48;11.93;;;3.97;;
17842;SDS011;69286;48.222;16.332;2023-06-22T00:03:16;14.07;;;4.70;;
17842;SDS011;69286;48.222;16.332;2023-06-22T00:05:44;12.03;;;4.60;;
17842;SDS011;69286;48.222;16.332;2023-06-22T00:08:11;16.23;;;4.33;;
17842;SDS011;69286;48.222;16.332;2023-06-22T00:10:38;15.77;;;4.53;;
17842;SDS011;69286;48.222;16.332;2023-06-22T00:13:06;15.13;;;4.47;;
17842;SDS011;69286;48.222;16.332;2023-06-22T00:15:36;11.33;;;4.53;;
17842;SDS011;69286;48.222;16.332;2023-06-22T00:18:04;9.50;;;3.80;;
17842;SDS011;69286;48.222;16.332;2023-06-22T00:20:33;9.63;;;3.87;;
17842;SDS011;69286;48.222;16.332;2023-06-22T00:23:02;14.53;;;4.37;;
17842;SDS011;69286;48.222;16.332;2023-06-22T00:25:33;12.80;;;4.20;;
17842;SDS011;69286;48.222;16.332;2023-06-22T00:28:01;12.07;;;3.90;;
17842;SDS011;69286;48.222;16.332;2023-06-22T00:30:29;6.93;;;3.67;;
17842;SDS011;69286;48.222;16.332;2023-06-22T00:32:58;15.43;;;4.03;;
17842;SDS011;69286;48.222;16.332;2023-06-22T00:35:25;12.23;;;3.83;;
17842;SDS011;69286;48.222;16.332;2023-06-22T00:37:54;12.70;;;4.30;;
17842;SDS011;69286;48.222;16.332;2023-06-22T00:40:26;10.80;;;4.10;;
17842;SDS011;69286;48.222;16.332;2023-06-22T00:42:53;10.27;;;3.97;;
17842;SDS011;69286;48.222;16.332;2023-06-22T00:45:21;13.97;;;3.90;;
17842;SDS011;69286;48.222;16.332;2023-06-22T00:47:49;10.57;;;3.67;;
17842;SDS011;69286;48.222;16.332;2023-06-22T00:50:19;20.00;;;4.47;;
17842;SDS011;69286;48.222;16.332;2023-06-22T00:52:48;15.13;;;4.40;;
17842;SDS011;69286;48.222;16.332;2023-06-22T00:55:18;15.63;;;4.63;;
17842;SDS011;69286;48.222;16.332;2023-06-22T00:57:45;10.33;;;4.37;;
17842;SDS011;69286;48.222;16.332;2023-06-22T01:00:13;13.73;;;4.70;;
17842;SDS011;69286;48.222;16.332;2023-06-22T01:02:41;8.67;;;4.30;;
17842;SDS011;69286;48.222;16.332;2023-06-22T01:05:10;7.47;;;4.13;;
17842;SDS011;69286;48.222;16.332;2023-06-22T01:07:41;8.17;;;4.07;;
17842;SDS011;69286;48.222;16.332;2023-06-22T01:10:15;11.70;;;4.37;;
17842;SDS011;69286;48.222;16.332;2023-06-22T01:12:48;8.70;;;3.97;;
17842;SDS011;69286;48.222;16.332;2023-06-22T01:15:21;12.03;;;4.50;;
17842;SDS011;69286;48.222;16.332;2023-06-22T01:17:54;9.73;;;3.83;;
17842;SDS011;69286;48.222;16.332;2023-06-22T01:20:24;7.57;;;3.93;;
17842;SDS011;69286;48.222;16.332;2023-06-22T01:22:59;8.90;;;4.07;;
17842;SDS011;69286;48.222;16.332;2023-06-22T01:25:35;9.43;;;4.20;;
17842;SDS011;69286;48.222;16.332;2023-06-22T01:28:23;12.63;;;4.53;;
17842;SDS011;69286;48.222;16.332;2023-06-22T01:31:07;12.17;;;4.13;;
17842;SDS011;69286;48.222;16.332;2023-06-22T01:33:37;12.10;;;4.33;;
17842;SDS011;69286;48.222;16.332;2023-06-22T01:36:07;14.23;;;4.33;;
17842;SDS011;69286;48.222;16.332;2023-06-22T01:38:35;10.37;;;3.87;;
17842;SDS011;69286;48.222;16.332;2023-06-22T01:41:04;13.23;;;4.43;;
17842;SDS011;69286;48.222;16.332;2023-06-22T01:43:31;11.23;;;4.30;;
17842;SDS011;69286;48.222;16.332;2023-06-22T01:46:02;14.17;;;4.13;;
17842;SDS011;69286;48.222;16.332;2023-06-22T01:48:30;11.93;;;4.47;;
17842;SDS011;69286;48.222;16.332;2023-06-22T01:50:57;11.50;;;4.23;;
17842;SDS011;69286;48.222;16.332;2023-06-22T01:53:25;13.57;;;5.30;;
17842;SDS011;69286;48.222;16.332;2023-06-22T01:55:52;14.20;;;4.53;;
17842;SDS011;69286;48.222;16.332;2023-06-22T01:58:19;10.90;;;4.90;;
17842;SDS011;69286;48.222;16.332;2023-06-22T02:00:50;7.87;;;4.23;;
17842;SDS011;69286;48.222;16.332;2023-06-22T02:03:25;14.93;;;4.70;;
17842;SDS011;69286;48.222;16.332;2023-06-22T02:05:56;10.37;;;4.60;;
17842;SDS011;69286;48.222;16.332;2023-06-22T02:08:30;10.63;;;4.37;;
17842;SDS011;69286;48.222;16.332;2023-06-22T02:11:00;10.47;;;4.33;;
17842;SDS011;69286;48.222;16.332;2023-06-22T02:13:28;11.20;;;4.30;;
17842;SDS011;69286;48.222;16.332;2023-06-22T02:15:56;12.30;;;4.67;;
17842;SDS011;69286;48.222;16.332;2023-06-22T02:18:25;16.33;;;4.20;;
17842;SDS011;69286;48.222;16.332;2023-06-22T02:20:53;17.13;;;4.40;;
17842;SDS011;69286;48.222;16.332;2023-06-22T02:23:20;7.87;;;4.40;;
17842;SDS011;69286;48.222;16.332;2023-06-22T02:25:47;12.87;;;4.17;;
17842;SDS011;69286;48.222;16.332;2023-06-22T02:28:14;10.67;;;4.13;;
17842;SDS011;69286;48.222;16.332;2023-06-22T02:30:41;8.90;;;4.20;;
17842;SDS011;69286;48.222;16.332;2023-06-22T02:33:08;10.80;;;4.67;;
17842;SDS011;69286;48.222;16.332;2023-06-22T02:35:36;19.03;;;4.20;;
17842;SDS011;69286;48.222;16.332;2023-06-22T02:38:04;10.57;;;3.77;;
17842;SDS011;69286;48.222;16.332;2023-06-22T02:40:33;6.53;;;3.93;;
17842;SDS011;69286;48.222;16.332;2023-06-22T02:43:00;8.83;;;3.97;;
17842;SDS011;69286;48.222;16.332;2023-06-22T02:45:27;8.67;;;3.60;;
17842;SDS011;69286;48.222;16.332;2023-06-22T02:47:55;10.37;;;4.03;;
17842;SDS011;69286;48.222;16.332;2023-06-22T02:50:22;8.17;;;3.87;;
17842;SDS011;69286;48.222;16.332;2023-06-22T02:52:51;12.40;;;4.00;;
17842;SDS011;69286;48.222;16.332;2023-06-22T02:55:18;10.87;;;4.17;;
17842;SDS011;69286;48.222;16.332;2023-06-22T02:57:45;8.03;;;3.80;;
17842;SDS011;69286;48.222;16.332;2023-06-22T03:00:13;18.03;;;4.47;;
17842;SDS011;69286;48.222;16.332;2023-06-22T03:02:43;14.43;;;3.97;;
17842;SDS011;69286;48.222;16.332;2023-06-22T03:05:10;9.43;;;4.07;;
17842;SDS011;69286;48.222;16.332;2023-06-22T03:07:39;13.83;;;4.23;;
17842;SDS011;69286;48.222;16.332;2023-06-22T03:10:09;14.87;;;4.70;;
17842;SDS011;69286;48.222;16.332;2023-06-22T03:12:36;9.90;;;4.33;;
17842;SDS011;69286;48.222;16.332;2023-06-22T03:15:04;10.63;;;4.00;;
17842;SDS011;69286;48.222;16.332;2023-06-22T03:17:33;10.73;;;4.30;;
17842;SDS011;69286;48.222;16.332;2023-06-22T03:20:00;20.33;;;4.63;;
17842;SDS011;69286;48.222;16.332;2023-06-22T03:22:32;12.67;;;4.50;;
17842;SDS011;69286;48.222;16.332;2023-06-22T03:24:59;13.70;;;4.73;;
17842;SDS011;69286;48.222;16.332;2023-06-22T03:27:27;7.90;;;4.47;;
17842;SDS011;69286;48.222;16.332;2023-06-22T03:29:56;11.67;;;4.83;;
17842;SDS011;69286;48.222;16.332;2023-06-22T03:32:23;10.63;;;4.33;;
17842;SDS011;69286;48.222;16.332;2023-06-22T03:34:53;12.43;;;4.67;;
17842;SDS011;69286;48.222;16.332;2023-06-22T03:37:23;8.90;;;4.67;;
17842;SDS011;69286;48.222;16.332;2023-06-22T03:39:50;9.83;;;4.70;;
17842;SDS011;69286;48.222;16.332;2023-06-22T03:42:18;10.60;;;4.23;;
17842;SDS011;69286;48.222;16.332;2023-06-22T03:44:46;9.03;;;4.80;;
17842;SDS011;69286;48.222;16.332;2023-06-22T03:47:14;12.17;;;4.77;;
17842;SDS011;69286;48.222;16.332;2023-06-22T03:49:41;8.20;;;4.23;;
17842;SDS011;69286;48.222;16.332;2023-06-22T03:52:08;9.70;;;4.83;;
17842;SDS011;69286;48.222;16.332;2023-06-22T03:54:35;8.53;;;5.00;;
17842;SDS011;69286;48.222;16.332;2023-06-22T03:57:03;14.00;;;4.53;;
17842;SDS011;69286;48.222;16.332;2023-06-22T03:59:30;8.90;;;5.10;;
17842;SDS011;69286;48.222;16.332;2023-06-22T04:01:59;12.10;;;5.00;;
17842;SDS011;69286;48.222;16.332;2023-06-22T04:04:26;12.73;;;4.53;;
17842;SDS011;69286;48.222;16.332;2023-06-22T04:06:53;7.30;;;4.63;;
17842;SDS011;69286;48.222;16.332;2023-06-22T04:09:20;11.80;;;4.70;;
17842;SDS011;69286;48.222;16.332;2023-06-22T04:11:47;10.60;;;4.43;;
17842;SDS011;69286;48.222;16.332;2023-06-22T04:14:15;12.33;;;4.90;;
17842;SDS011;69286;48.222;16.332;2023-06-22T04:16:42;8.57;;;4.63;;
17842;SDS011;69286;48.222;16.332;2023-06-22T04:19:10;17.57;;;5.00;;
17842;SDS011;69286;48.222;16.332;2023-06-22T04:21:41;12.03;;;4.93;;
17842;SDS011;69286;48.222;16.332;2023-06-22T04:24:09;14.43;;;4.77;;
17842;SDS011;69286;48.222;16.332;2023-06-22T04:26:36;10.87;;;5.20;;
17842;SDS011;69286;48.222;16.332;2023-06-22T04:29:06;16.93;;;5.07;;
17842;SDS011;69286;48.222;16.332;2023-06-22T04:31:34;15.53;;;5.47;;
17842;SDS011;69286;48.222;16.332;2023-06-22T04:34:02;17.57;;;5.47;;
17842;SDS011;69286;48.222;16.332;2023-06-22T04:36:34;14.03;;;5.40;;
17842;SDS011;69286;48.222;16.332;2023-06-22T04:39:05;13.20;;;5.13;;
17842;SDS011;69286;48.222;16.332;2023-06-22T04:41:34;17.77;;;5.63;;
17842;SDS011;69286;48.222;16.332;2023-06-22T04:44:07;13.67;;;5.00;;
17842;SDS011;69286;48.222;16.332;2023-06-22T04:46:35;11.30;;;4.60;;
17842;SDS011;69286;48.222;16.332;2023-06-22T04:49:04;16.23;;;7.57;;
17842;SDS011;69286;48.222;16.332;2023-06-22T04:51:36;11.37;;;5.07;;
17842;SDS011;69286;48.222;16.332;2023-06-22T04:54:04;16.00;;;5.13;;
17842;SDS011;69286;48.222;16.332;2023-06-22T04:56:31;13.50;;;5.00;;
17842;SDS011;69286;48.222;16.332;2023-06-22T04:58:58;13.03;;;5.10;;
17842;SDS011;69286;48.222;16.332;2023-06-22T05:01:25;20.93;;;5.87;;
17842;SDS011;69286;48.222;16.332;2023-06-22T05:03:52;12.02;;;4.95;;
17842;SDS011;69286;48.222;16.332;2023-06-22T05:06:20;15.45;;;5.78;;
17842;SDS011;69286;48.222;16.332;2023-06-22T05:08:51;9.63;;;4.73;;
17842;SDS011;69286;48.222;16.332;2023-06-22T05:11:19;9.07;;;4.60;;
17842;SDS011;69286;48.222;16.332;2023-06-22T05:13:46;13.95;;;4.57;;
17842;SDS011;69286;48.222;16.332;2023-06-22T05:16:13;11.00;;;4.05;;
17842;SDS011;69286;48.222;16.332;2023-06-22T05:18:40;10.43;;;4.53;;
17842;SDS011;69286;48.222;16.332;2023-06-22T05:21:08;12.55;;;4.55;;
17842;SDS011;69286;48.222;16.332;2023-06-22T05:23:35;10.90;;;3.97;;
17842;SDS011;69286;48.222;16.332;2023-06-22T05:26:04;15.75;;;4.25;;
17842;SDS011;69286;48.222;16.332;2023-06-22T05:28:30;9.40;;;3.90;;
17842;SDS011;69286;48.222;16.332;2023-06-22T05:30:58;15.23;;;4.10;;
17842;SDS011;69286;48.222;16.332;2023-06-22T05:33:25;17.80;;;3.63;;
17842;SDS011;69286;48.222;16.332;2023-06-22T05:35:52;11.00;;;4.05;;
17842;SDS011;69286;48.222;16.332;2023-06-22T05:38:19;17.75;;;3.97;;
17842;SDS011;69286;48.222;16.332;2023-06-22T05:40:47;8.07;;;3.50;;
17842;SDS011;69286;48.222;16.332;2023-06-22T05:43:15;11.30;;;3.88;;
17842;SDS011;69286;48.222;16.332;2023-06-22T05:45:42;13.52;;;4.75;;
17842;SDS011;69286;48.222;16.332;2023-06-22T05:48:09;12.32;;;4.07;;
17842;SDS011;69286;48.222;16.332;2023-06-22T05:50:36;18.05;;;4.20;;
17842;SDS011;69286;48.222;16.332;2023-06-22T05:53:03;9.73;;;4.50;;
17842;SDS011;69286;48.222;16.332;2023-06-22T05:55:32;16.98;;;4.18;;
17842;SDS011;69286;48.222;16.332;2023-06-22T05:57:59;13.18;;;4.00;;
17842;SDS011;69286;48.222;16.332;2023-06-22T06:00:27;11.25;;;4.60;;
17842;SDS011;69286;48.222;16.332;2023-06-22T06:02:54;17.85;;;3.92;;
17842;SDS011;69286;48.222;16.332;2023-06-22T06:05:21;10.90;;;4.20;;
17842;SDS011;69286;48.222;16.332;2023-06-22T06:07:50;10.18;;;3.95;;
17842;SDS011;69286;48.222;16.332;2023-06-22T06:10:17;11.38;;;4.30;;
17842;SDS011;69286;48.222;16.332;2023-06-22T06:12:45;9.50;;;3.53;;
17842;SDS011;69286;48.222;16.332;2023-06-22T06:15:12;12.23;;;3.85;;
17842;SDS011;69286;48.222;16.332;2023-06-22T06:17:46;11.35;;;4.60;;
17842;SDS011;69286;48.222;16.332;2023-06-22T06:20:13;15.48;;;4.18;;
17842;SDS011;69286;48.222;16.332;2023-06-22T06:22:40;13.60;;;3.80;;
17842;SDS011;69286;48.222;16.332;2023-06-22T06:25:09;15.77;;;4.93;;
17842;SDS011;69286;48.222;16.332;2023-06-22T06:27:41;15.80;;;5.90;;
17842;SDS011;69286;48.222;16.332;2023-06-22T06:30:08;11.48;;;4.57;;
17842;SDS011;69286;48.222;16.332;2023-06-22T06:32:36;16.83;;;4.80;;
17842;SDS011;69286;48.222;16.332;2023-06-22T06:35:07;14.82;;;5.97;;
17842;SDS011;69286;48.222;16.332;2023-06-22T06:37:36;14.30;;;5.55;;
17842;SDS011;69286;48.222;16.332;2023-06-22T06:40:04;18.27;;;6.03;;
17842;SDS011;69286;48.222;16.332;2023-06-22T06:42:33;14.15;;;5.38;;
17842;SDS011;69286;48.222;16.332;2023-06-22T06:45:02;15.07;;;6.53;;
17842;SDS011;69286;48.222;16.332;2023-06-22T06:47:30;18.05;;;5.57;;
17842;SDS011;69286;48.222;16.332;2023-06-22T06:49:57;19.13;;;5.40;;
17842;SDS011;69286;48.222;16.332;2023-06-22T06:52:26;19.52;;;6.45;;
17842;SDS011;69286;48.222;16.332;2023-06-22T06:54:53;25.50;;;6.53;;
17842;SDS011;69286;48.222;16.332;2023-06-22T06:57:20;19.70;;;7.50;;
17842;SDS011;69286;48.222;16.332;2023-06-22T06:59:47;17.02;;;7.90;;
17842;SDS011;69286;48.222;16.332;2023-06-22T07:02:14;24.50;;;8.73;;
17842;SDS011;69286;48.222;16.332;2023-06-22T07:04:42;20.98;;;7.78;;
17842;SDS011;69286;48.222;16.332;2023-06-22T07:07:09;26.42;;;9.45;;
17842;SDS011;69286;48.222;16.332;2023-06-22T07:09:37;23.83;;;9.55;;
17842;SDS011;69286;48.222;16.332;2023-06-22T07:12:04;21.52;;;9.13;;
17842;SDS011;69286;48.222;16.332;2023-06-22T07:14:32;25.92;;;8.15;;
17842;SDS011;69286;48.222;16.332;2023-06-22T07:16:59;24.38;;;9.18;;
17842;SDS011;69286;48.222;16.332;2023-06-22T07:19:26;22.08;;;9.40;;
17842;SDS011;69286;48.222;16.332;2023-06-22T07:21:54;17.88;;;9.80;;
17842;SDS011;69286;48.222;16.332;2023-06-22T07:24:21;20.02;;;9.63;;
17842;SDS011;69286;48.222;16.332;2023-06-22T07:26:49;16.98;;;8.25;;
17842;SDS011;69286;48.222;16.332;2023-06-22T07:29:17;17.95;;;8.15;;
17842;SDS011;69286;48.222;16.332;2023-06-22T07:31:45;19.95;;;7.97;;
17842;SDS011;69286;48.222;16.332;2023-06-22T07:34:12;15.57;;;6.78;;
17842;SDS011;69286;48.222;16.332;2023-06-22T07:36:39;21.13;;;8.35;;
17842;SDS011;69286;48.222;16.332;2023-06-22T07:39:06;30.35;;;7.80;;
17842;SDS011;69286;48.222;16.332;2023-06-22T07:41:33;18.73;;;8.70;;
17842;SDS011;69286;48.222;16.332;2023-06-22T07:44:02;25.75;;;7.55;;
17842;SDS011;69286;48.222;16.332;2023-06-22T07:46:29;22.35;;;8.73;;
17842;SDS011;69286;48.222;16.332;2023-06-22T07:48:56;21.65;;;7.60;;
17842;SDS011;69286;48.222;16.332;2023-06-22T07:51:24;16.38;;;7.43;;
17842;SDS011;69286;48.222;16.332;2023-06-22T07:53:51;15.07;;;6.70;;
17842;SDS011;69286;48.222;16.332;2023-06-22T07:56:18;18.42;;;8.70;;
17842;SDS011;69286;48.222;16.332;2023-06-22T07:58:46;15.90;;;7.60;;
17842;SDS011;69286;48.222;16.332;2023-06-22T08:01:14;16.38;;;6.35;;
17842;SDS011;69286;48.222;16.332;2023-06-22T08:03:41;10.80;;;6.10;;
17842;SDS011;69286;48.222;16.332;2023-06-22T08:06:09;16.30;;;7.30;;
17842;SDS011;69286;48.222;16.332;2023-06-22T08:08:36;21.73;;;7.65;;
17842;SDS011;69286;48.222;16.332;2023-06-22T08:11:03;20.98;;;8.43;;
17842;SDS011;69286;48.222;16.332;2023-06-22T08:13:30;21.17;;;9.50;;
17842;SDS011;69286;48.222;16.332;2023-06-22T08:15:58;19.48;;;8.18;;
17842;SDS011;69286;48.222;16.332;2023-06-22T08:18:27;25.48;;;9.02;;
17842;SDS011;69286;48.222;16.332;2023-06-22T08:20:54;15.50;;;7.78;;
17842;SDS011;69286;48.222;16.332;2023-06-22T08:23:21;18.92;;;7.30;;
17842;SDS011;69286;48.222;16.332;2023-06-22T08:25:48;19.98;;;7.60;;
17842;SDS011;69286;48.222;16.332;2023-06-22T08:28:16;19.30;;;7.05;;
17842;SDS011;69286;48.222;16.332;2023-06-22T08:30:43;23.42;;;9.25;;
17842;SDS011;69286;48.222;16.332;2023-06-22T08:33:10;15.27;;;7.53;;
17842;SDS011;69286;48.222;16.332;2023-06-22T08:35:39;17.48;;;7.25;;
17842;SDS011;69286;48.222;16.332;2023-06-22T08:38:06;17.58;;;8.18;;
17842;SDS011;69286;48.222;16.332;2023-06-22T08:40:34;15.80;;;6.80;;
17842;SDS011;69286;48.222;16.332;2023-06-22T08:43:01;21.08;;;7.80;;
17842;SDS011;69286;48.222;16.332;2023-06-22T08:45:28;21.08;;;7.20;;
17842;SDS011;69286;48.222;16.332;2023-06-22T08:47:55;12.07;;;7.57;;
17842;SDS011;69286;48.222;16.332;2023-06-22T08:50:22;18.75;;;7.65;;
17842;SDS011;69286;48.222;16.332;2023-06-22T08:52:51;13.35;;;7.10;;
17842;SDS011;69286;48.222;16.332;2023-06-22T08:55:18;18.40;;;7.25;;
17842;SDS011;69286;48.222;16.332;2023-06-22T08:57:45;16.92;;;6.85;;
17842;SDS011;69286;48.222;16.332;2023-06-22T09:00:12;14.82;;;6.43;;
17842;SDS011;69286;48.222;16.332;2023-06-22T09:02:42;16.73;;;7.50;;
17842;SDS011;69286;48.222;16.332;2023-06-22T09:05:09;17.40;;;7.72;;
17842;SDS011;69286;48.222;16.332;2023-06-22T09:07:36;18.77;;;6.90;;
17842;SDS011;69286;48.222;16.332;2023-06-22T09:10:05;15.45;;;7.32;;
17842;SDS011;69286;48.222;16.332;2023-06-22T09:12:33;17.13;;;7.82;;
17842;SDS011;69286;48.222;16.332;2023-06-22T09:15:03;23.58;;;7.07;;
17842;SDS011;69286;48.222;16.332;2023-06-22T09:17:32;15.27;;;7.68;;
17842;SDS011;69286;48.222;16.332;2023-06-22T09:20:02;15.63;;;7.03;;
17842;SDS011;69286;48.222;16.332;2023-06-22T09:22:31;13.43;;;6.85;;
17842;SDS011;69286;48.222;16.332;2023-06-22T09:24:58;9.93;;;6.00;;
17842;SDS011;69286;48.222;16.332;2023-06-22T09:27:27;17.23;;;7.15;;
17842;SDS011;69286;48.222;16.332;2023-06-22T09:29:54;16.27;;;7.15;;
17842;SDS011;69286;48.222;16.332;2023-06-22T09:32:23;18.52;;;7.10;;
17842;SDS011;69286;48.222;16.332;2023-06-22T09:34:50;14.63;;;6.85;;
17842;SDS011;69286;48.222;16.332;2023-06-22T09:37:18;13.73;;;6.60;;
17842;SDS011;69286;48.222;16.332;2023-06-22T09:39:45;17.05;;;7.03;;
17842;SDS011;69286;48.222;16.332;2023-06-22T09:42:12;24.92;;;7.43;;
17842;SDS011;69286;48.222;16.332;2023-06-22T09:44:40;17.88;;;8.23;;
17842;SDS011;69286;48.222;16.332;2023-06-22T09:47:08;16.90;;;8.07;;
17842;SDS011;69286;48.222;16.332;2023-06-22T09:49:35;19.23;;;7.65;;
17842;SDS011;69286;48.222;16.332;2023-06-22T09:52:02;14.30;;;7.18;;
17842;SDS011;69286;48.222;16.332;2023-06-22T09:54:29;21.27;;;8.35;;
17842;SDS011;69286;48.222;16.332;2023-06-22T09:56:56;16.20;;;7.70;;
17842;SDS011;69286;48.222;16.332;2023-06-22T09:59:23;16.27;;;7.70;;
17842;SDS011;69286;48.222;16.332;2023-06-22T10:01:51;18.15;;;7.47;;
17842;SDS011;69286;48.222;16.332;2023-06-22T10:04:18;21.02;;;8.32;;
17842;SDS011;69286;48.222;16.332;2023-06-22T10:06:45;22.58;;;7.53;;
17842;SDS011;69286;48.222;16.332;2023-06-22T10:09:12;19.55;;;8.40;;
17842;SDS011;69286;48.222;16.332;2023-06-22T10:11:39;13.98;;;7.88;;
17842;SDS011;69286;48.222;16.332;2023-06-22T10:14:06;15.18;;;7.38;;
17842;SDS011;69286;48.222;16.332;2023-06-22T10:16:33;17.35;;;8.25;;
17842;SDS011;69286;48.222;16.332;2023-06-22T10:19:04;22.15;;;7.70;;
17842;SDS011;69286;48.222;16.332;2023-06-22T10:21:30;20.65;;;7.72;;
17842;SDS011;69286;48.222;16.332;2023-06-22T10:23:58;12.68;;;7.45;;
17842;SDS011;69286;48.222;16.332;2023-06-22T10:26:30;24.33;;;8.38;;
17842;SDS011;69286;48.222;16.332;2023-06-22T10:28:58;17.48;;;7.75;;
17842;SDS011;69286;48.222;16.332;2023-06-22T10:31:25;20.23;;;7.75;;
17842;SDS011;69286;48.222;16.332;2023-06-22T10:33:52;13.48;;;6.90;;
17842;SDS011;69286;48.222;16.332;2023-06-22T10:36:21;14.32;;;6.85;;
17842;SDS011;69286;48.222;16.332;2023-06-22T10:38:48;10.45;;;5.88;;
17842;SDS011;69286;48.222;16.332;2023-06-22T10:41:15;14.02;;;6.40;;
17842;SDS011;69286;48.222;16.332;2023-06-22T10:43:42;17.05;;;6.03;;
17842;SDS011;69286;48.222;16.332;2023-06-22T10:46:09;10.85;;;4.75;;
17842;SDS011;69286;48.222;16.332;2023-06-22T10:48:36;14.10;;;5.63;;
17842;SDS011;69286;48.222;16.332;2023-06-22T10:51:03;13.10;;;5.47;;
17842;SDS011;69286;48.222;16.332;2023-06-22T10:53:32;9.73;;;4.88;;
17842;SDS011;69286;48.222;16.332;2023-06-22T10:55:58;12.90;;;4.55;;
17842;SDS011;69286;48.222;16.332;2023-06-22T10:58:25;10.35;;;3.88;;
17842;SDS011;69286;48.222;16.332;2023-06-22T11:00:52;11.95;;;4.30;;
17842;SDS011;69286;48.222;16.332;2023-06-22T11:03:19;10.18;;;4.35;;
17842;SDS011;69286;48.222;16.332;2023-06-22T11:05:46;15.90;;;4.53;;
17842;SDS011;69286;48.222;16.332;2023-06-22T11:08:13;12.60;;;3.88;;
17842;SDS011;69286;48.222;16.332;2023-06-22T11:10:42;17.13;;;4.15;;
17842;SDS011;69286;48.222;16.332;2023-06-22T11:13:10;12.98;;;4.43;;
17842;SDS011;69286;48.222;16.332;2023-06-22T11:15:37;10.57;;;4.35;;
17842;SDS011;69286;48.222;16.332;2023-06-22T11:18:04;14.35;;;4.95;;
17842;SDS011;69286;48.222;16.332;2023-06-22T11:20:32;16.75;;;4.75;;
17842;SDS011;69286;48.222;16.332;2023-06-22T11:23:03;22.67;;;5.32;;
17842;SDS011;69286;48.222;16.332;2023-06-22T11:25:30;12.27;;;5.35;;
17842;SDS011;69286;48.222;16.332;2023-06-22T11:28:01;12.05;;;5.28;;
17842;SDS011;69286;48.222;16.332;2023-06-22T11:30:29;20.25;;;5.15;;
17842;SDS011;69286;48.222;16.332;2023-06-22T11:32:56;14.50;;;6.47;;
17842;SDS011;69286;48.222;16.332;2023-06-22T11:35:25;29.55;;;6.70;;
17842;SDS011;69286;48.222;16.332;2023-06-22T11:37:52;15.20;;;6.50;;
17842;SDS011;69286;48.222;16.332;2023-06-22T11:40:19;20.55;;;6.80;;
17842;SDS011;69286;48.222;16.332;2023-06-22T11:42:46;17.98;;;7.10;;
17842;SDS011;69286;48.222;16.332;2023-06-22T11:45:14;18.85;;;6.70;;
17842;SDS011;69286;48.222;16.332;2023-06-22T11:47:42;17.88;;;6.60;;
17842;SDS011;69286;48.222;16.332;2023-06-22T11:50:09;15.07;;;6.18;;
17842;SDS011;69286;48.222;16.332;2023-06-22T11:52:36;14.77;;;6.22;;
17842;SDS011;69286;48.222;16.332;2023-06-22T11:55:04;14.90;;;5.40;;
17842;SDS011;69286;48.222;16.332;2023-06-22T11:57:32;12.70;;;5.22;;
17842;SDS011;69286;48.222;16.332;2023-06-22T12:00:00;16.08;;;5.65;;
17842;SDS011;69286;48.222;16.332;2023-06-22T12:02:32;13.32;;;5.45;;
17842;SDS011;69286;48.222;16.332;2023-06-22T12:04:59;15.98;;;5.13;;
17842;SDS011;69286;48.222;16.332;2023-06-22T12:07:29;18.58;;;5.30;;
17842;SDS011;69286;48.222;16.332;2023-06-22T12:09:56;19.90;;;6.18;;
17842;SDS011;69286;48.222;16.332;2023-06-22T12:12:23;13.93;;;4.68;;
17842;SDS011;69286;48.222;16.332;2023-06-22T12:14:50;11.52;;;4.80;;
17842;SDS011;69286;48.222;16.332;2023-06-22T12:17:17;13.38;;;5.25;;
17842;SDS011;69286;48.222;16.332;2023-06-22T12:19:46;18.45;;;4.97;;
17842;SDS011;69286;48.222;16.332;2023-06-22T12:22:13;13.25;;;5.03;;
17842;SDS011;69286;48.222;16.332;2023-06-22T12:24:40;12.55;;;4.82;;
17842;SDS011;69286;48.222;16.332;2023-06-22T12:27:07;15.60;;;4.90;;
17842;SDS011;69286;48.222;16.332;2023-06-22T12:29:35;13.15;;;4.70;;
17842;SDS011;69286;48.222;16.332;2023-06-22T12:32:02;11.38;;;4.32;;
17842;SDS011;69286;48.222;16.332;2023-06-22T12:34:29;13.27;;;4.78;;
17842;SDS011;69286;48.222;16.332;2023-06-22T12:36:58;8.23;;;4.00;;
17842;SDS011;69286;48.222;16.332;2023-06-22T12:39:25;15.55;;;5.20;;
17842;SDS011;69286;48.222;16.332;2023-06-22T12:41:51;9.23;;;4.30;;
17842;SDS011;69286;48.222;16.332;2023-06-22T12:44:18;17.48;;;4.97;;
17842;SDS011;69286;48.222;16.332;2023-06-22T12:46:45;18.40;;;5.05;;
17842;SDS011;69286;48.222;16.332;2023-06-22T12:49:12;15.63;;;5.13;;
17842;SDS011;69286;48.222;16.332;2023-06-22T12:51:40;16.30;;;4.72;;
17842;SDS011;69286;48.222;16.332;2023-06-22T12:54:09;11.90;;;5.05;;
17842;SDS011;69286;48.222;16.332;2023-06-22T12:56:37;18.85;;;5.25;;
17842;SDS011;69286;48.222;16.332;2023-06-22T12:59:04;7.53;;;3.97;;
17842;SDS011;69286;48.222;16.332;2023-06-22T13:01:31;11.25;;;5.15;;
17842;SDS011;69286;48.222;16.332;2023-06-22T13:03:58;9.85;;;4.18;;
17842;SDS011;69286;48.222;16.332;2023-06-22T13:06:25;9.13;;;4.18;;
17842;SDS011;69286;48.222;16.332;2023-06-22T13:08:52;14.82;;;5.40;;
17842;SDS011;69286;48.222;16.332;2023-06-22T13:11:21;10.32;;;4.40;;
17842;SDS011;69286;48.222;16.332;2023-06-22T13:13:48;14.90;;;4.88;;
17842;SDS011;69286;48.222;16.332;2023-06-22T13:16:15;15.32;;;4.55;;
17842;SDS011;69286;48.222;16.332;2023-06-22T13:18:42;17.35;;;5.00;;
17842;SDS011;69286;48.222;16.332;2023-06-22T13:21:09;14.05;;;5.20;;
17842;SDS011;69286;48.222;16.332;2023-06-22T13:23:36;12.05;;;5.32;;
17842;SDS011;69286;48.222;16.332;2023-06-22T13:26:03;12.98;;;5.57;;
17842;SDS011;69286;48.222;16.332;2023-06-22T13:28:31;16.85;;;6.13;;
17842;SDS011;69286;48.222;16.332;2023-06-22T13:30:58;16.55;;;5.68;;
17842;SDS011;69286;48.222;16.332;2023-06-22T13:33:25;13.73;;;5.90;;
17842;SDS011;69286;48.222;16.332;2023-06-22T13:35:52;17.60;;;5.57;;
17842;SDS011;69286;48.222;16.332;2023-06-22T13:38:20;12.48;;;5.43;;
17842;SDS011;69286;48.222;16.332;2023-06-22T13:40:47;15.88;;;5.55;;
17842;SDS011;69286;48.222;16.332;2023-06-22T13:43:14;12.57;;;5.00;;
17842;SDS011;69286;48.222;16.332;2023-06-22T13:45:44;18.10;;;5.45;;
17842;SDS011;69286;48.222;16.332;2023-06-22T13:48:10;12.95;;;5.10;;
17842;SDS011;69286;48.222;16.332;2023-06-22T13:50:37;18.02;;;5.28;;
17842;SDS011;69286;48.222;16.332;2023-06-22T13:53:04;14.68;;;5.43;;
17842;SDS011;69286;48.222;16.332;2023-06-22T13:55:31;17.83;;;5.60;;
17842;SDS011;69286;48.222;16.332;2023-06-22T13:57:58;14.02;;;5.88;;
17842;SDS011;69286;48.222;16.332;2023-06-22T14:00:25;17.10;;;5.88;;
17842;SDS011;69286;48.222;16.332;2023-06-22T14:02:54;15.65;;;5.95;;
17842;SDS011;69286;48.222;16.332;2023-06-22T14:05:21;17.13;;;5.28;;
17842;SDS011;69286;48.222;16.332;2023-06-22T14:07:48;11.73;;;5.55;;
17842;SDS011;69286;48.222;16.332;2023-06-22T14:10:15;11.23;;;5.97;;
17842;SDS011;69286;48.222;16.332;2023-06-22T14:12:42;15.13;;;5.45;;
17842;SDS011;69286;48.222;16.332;2023-06-22T14:15:09;15.45;;;6.10;;
17842;SDS011;69286;48.222;16.332;2023-06-22T14:17:36;12.68;;;5.68;;
17842;SDS011;69286;48.222;16.332;2023-06-22T14:20:05;13.35;;;5.70;;
17842;SDS011;69286;48.222;16.332;2023-06-22T14:22:33;20.63;;;6.63;;
17842;SDS011;69286;48.222;16.332;2023-06-22T14:25:01;16.38;;;6.22;;
17842;SDS011;69286;48.222;16.332;2023-06-22T14:27:29;17.23;;;6.30;;